Time;durP1;ratioP1;P1;durP2;ratioP2;P2;SDS_P1;SDS_P2;PMS_P1;PMS_P2;Temp;Humidity;BMP_temperature;BMP_pressure;BME280_temperature;BME280_humidity;BME280_pressure;Samples;Min_cycle;Max_cycle;Signal;HPM_P1;HPM_P2
2023/08/21 00:00:13;;;;;;;25.25;7.50;;;;;;;19.96;100.00;101766.66;5098032;28;20042;-69
2023/08/21 00:02:38;;;;;;;27.77;8.07;;;;;;;19.97;100.00;101770.22;5100757;28;20032;-70
2023/08/21 00:05:04;;;;;;;28.35;7.60;;;;;;;19.93;100.00;101769.84;5102929;28;20028;-69
2023/08/21 00:07:29;;;;;;;30.55;8.38;;;;;;;19.84;100.00;101772.13;5101446;28;20020;-70
2023/08/21 00:09:55;;;;;;;24.00;6.97;;;;;;;19.88;100.00;101773.31;5084563;28;20028;-70
2023/08/21 00:12:20;;;;;;;29.65;8.00;;;;;;;19.86;100.00;101769.97;5082723;28;20074;-71
2023/08/21 00:14:46;;;;;;;27.50;7.57;;;;;;;19.79;100.00;101762.97;5098760;28;20028;-70
2023/08/21 00:17:11;;;;;;;27.35;7.60;;;;;;;19.80;100.00;101775.56;5100654;28;20636;-70
2023/08/21 00:19:36;;;;;;;27.05;7.35;;;;;;;19.75;100.00;101776.28;5100098;28;20043;-69
2023/08/21 00:22:02;;;;;;;26.48;6.57;;;;;;;19.63;100.00;101759.03;5100192;28;20036;-69
2023/08/21 00:24:27;;;;;;;30.17;6.97;;;;;;;19.57;100.00;101752.63;5098278;28;20036;-70
2023/08/21 00:26:53;;;;;;;33.20;7.30;;;;;;;19.64;100.00;101772.47;5100843;28;20388;-69
2023/08/21 00:29:18;;;;;;;25.45;6.45;;;;;;;19.61;100.00;101767.47;5099560;28;20556;-70
2023/08/21 00:31:44;;;;;;;21.45;6.28;;;;;;;19.60;100.00;101770.41;5100123;28;20043;-69
2023/08/21 00:34:09;;;;;;;25.40;6.97;;;;;;;19.47;100.00;101757.84;5101087;28;20024;-70
2023/08/21 00:36:34;;;;;;;28.92;7.35;;;;;;;19.46;100.00;101767.06;5099246;28;20069;-69
2023/08/21 00:39:00;;;;;;;25.83;6.80;;;;;;;19.47;100.00;101774.22;5099860;28;20504;-71
2023/08/21 00:41:25;;;;;;;23.85;6.63;;;;;;;19.43;100.00;101779.28;5101348;28;20106;-70
2023/08/21 00:43:51;;;;;;;31.42;7.75;;;;;;;19.39;100.00;101780.00;5066044;28;20034;-70
2023/08/21 00:46:17;;;;;;;25.00;7.50;;;;;;;19.30;100.00;101775.94;5098132;28;20085;-69
2023/08/21 00:48:43;;;;;;;30.70;7.38;;;;;;;19.23;100.00;101782.31;5098657;28;20082;-70
2023/08/21 00:51:10;;;;;;;22.55;6.85;;;;;;;19.21;100.00;101776.28;5098807;28;20052;-71
2023/08/21 00:53:36;;;;;;;31.38;7.07;;;;;;;19.18;100.00;101784.09;5098492;28;20048;-70
2023/08/21 00:56:02;;;;;;;31.13;7.10;;;;;;;19.13;100.00;101771.13;5097837;28;20040;-70
2023/08/21 00:58:28;;;;;;;27.08;7.03;;;;;;;19.15;100.00;101777.22;5097600;28;20539;-69
2023/08/21 01:00:53;;;;;;;28.08;7.38;;;;;;;19.15;100.00;101771.75;5096500;28;20537;-69
2023/08/21 01:03:19;;;;;;;31.35;8.18;;;;;;;19.16;100.00;101767.94;5101541;28;20024;-69
2023/08/21 01:05:45;;;;;;;25.20;7.75;;;;;;;19.16;100.00;101765.22;5106641;28;20028;-73
2023/08/21 01:08:21;;;;;;;31.90;7.07;;;;;;;19.13;100.00;101759.41;5109975;28;20118;-69
2023/08/21 01:10:57;;;;;;;32.30;7.40;;;;;;;19.12;100.00;101761.31;5107918;28;20032;-69
2023/08/21 01:13:29;;;;;;;32.00;7.15;;;;;;;19.09;100.00;101761.75;5107364;28;20120;-70
2023/08/21 01:15:57;;;;;;;30.08;6.90;;;;;;;19.04;100.00;101758.91;5105220;28;20085;-69
2023/08/21 01:18:24;;;;;;;30.60;7.43;;;;;;;19.02;100.00;101763.75;5106506;28;20039;-69
2023/08/21 01:20:51;;;;;;;25.40;6.95;;;;;;;19.00;100.00;101754.97;5106654;28;20026;-69
2023/08/21 01:23:38;;;;;;;31.20;6.90;;;;;;;18.97;100.00;101748.09;5105750;28;20061;-69
2023/08/21 01:26:04;;;;;;;28.90;6.90;;;;;;;18.94;100.00;101756.75;5106826;28;20088;-70
2023/08/21 01:28:32;;;;;;;26.27;6.40;;;;;;;18.90;100.00;101750.06;5106986;28;20028;-69
2023/08/21 01:31:09;;;;;;;29.13;6.60;;;;;;;18.93;100.00;101748.78;5106345;28;20034;-69
2023/08/21 01:33:42;;;;;;;25.98;6.18;;;;;;;18.90;100.00;101744.63;5106446;28;20016;-70
2023/08/21 01:36:08;;;;;;;22.92;6.20;;;;;;;18.84;100.00;101734.66;5103518;28;20027;-69
2023/08/21 01:38:35;;;;;;;27.48;6.50;;;;;;;18.88;100.00;101746.75;5100321;28;20070;-69
2023/08/21 01:41:00;;;;;;;29.48;5.65;;;;;;;18.82;100.00;101736.78;5097941;28;20039;-69
2023/08/21 01:43:26;;;;;;;31.90;6.35;;;;;;;18.81;100.00;101750.63;5098395;28;20024;-69
2023/08/21 01:45:51;;;;;;;21.83;5.43;;;;;;;18.66;100.00;101731.94;5063564;28;20032;-69
2023/08/21 01:48:16;;;;;;;25.92;5.45;;;;;;;18.74;100.00;101748.00;5096525;28;20556;-69
2023/08/21 01:50:42;;;;;;;24.55;5.30;;;;;;;18.73;100.00;101755.34;5100261;28;20119;-69
2023/08/21 01:53:07;;;;;;;19.05;5.10;;;;;;;18.73;100.00;101758.06;5098275;28;20035;-69
2023/08/21 01:55:33;;;;;;;27.75;5.65;;;;;;;18.62;100.00;101742.47;5098601;28;20048;-69
2023/08/21 01:57:58;;;;;;;24.38;5.35;;;;;;;18.73;100.00;101752.63;5100415;28;20103;-69
2023/08/21 02:00:24;;;;;;;28.05;5.43;;;;;;;18.73;100.00;101762.69;5100035;28;20028;-69
2023/08/21 02:02:49;;;;;;;27.92;5.53;;;;;;;18.73;100.00;101757.25;5098700;28;20027;-70
2023/08/21 02:05:15;;;;;;;31.05;6.00;;;;;;;18.76;100.00;101752.16;5098672;28;20036;-69
2023/08/21 02:07:40;;;;;;;28.00;6.13;;;;;;;18.73;100.00;101760.78;5097180;28;20028;-69
2023/08/21 02:10:06;;;;;;;31.70;6.38;;;;;;;18.69;100.00;101745.94;5099208;28;20069;-69
2023/08/21 02:12:31;;;;;;;27.77;5.57;;;;;;;18.80;100.00;101768.06;5103069;28;20032;-69
2023/08/21 02:14:57;;;;;;;28.15;5.63;;;;;;;18.71;100.00;101753.91;5101593;28;20035;-69
2023/08/21 02:17:25;;;;;;;22.42;4.93;;;;;;;18.75;100.00;101753.22;5086600;28;20032;-69
2023/08/21 02:19:51;;;;;;;25.23;4.70;;;;;;;18.80;100.00;101755.25;5105605;28;20028;-69
2023/08/21 02:22:16;;;;;;;29.40;5.43;;;;;;;18.81;100.00;101751.47;5105020;28;20161;-69
2023/08/21 02:24:41;;;;;;;20.67;4.78;;;;;;;18.80;100.00;101754.41;5088300;28;20596;-69
2023/08/21 02:27:07;;;;;;;20.80;4.82;;;;;;;18.80;100.00;101754.41;5104768;28;20035;-69
2023/08/21 02:29:32;;;;;;;27.05;5.80;;;;;;;18.78;100.00;101744.59;5105150;28;20078;-69
2023/08/21 02:31:58;;;;;;;20.67;4.78;;;;;;;18.81;100.00;101753.34;5104485;28;20032;-69
2023/08/21 02:34:24;;;;;;;27.38;5.10;;;;;;;18.84;100.00;101761.94;5105529;28;20036;-69
2023/08/21 02:36:49;;;;;;;26.95;5.68;;;;;;;18.89;100.00;101753.88;5069603;28;20371;-69
2023/08/21 02:39:15;;;;;;;28.50;5.50;;;;;;;18.95;100.00;101758.41;5106159;28;20027;-69
2023/08/21 02:41:40;;;;;;;21.80;5.03;;;;;;;18.76;100.00;101722.16;5108078;28;20028;-69
2023/08/21 02:44:05;;;;;;;20.13;4.43;;;;;;;18.98;100.00;101762.56;5108700;28;20024;-70
2023/08/21 02:46:33;;;;;;;20.17;4.40;;;;;;;18.97;100.00;101759.00;5090073;28;20116;-69
2023/08/21 02:48:58;;;;;;;18.52;4.15;;;;;;;19.02;100.00;101758.31;5108857;28;20020;-70
2023/08/21 02:51:24;;;;;;;17.73;4.57;;;;;;;19.08;100.00;101765.56;5109947;28;20506;-69
2023/08/21 02:53:49;;;;;;;20.60;4.65;;;;;;;19.09;100.00;101759.03;5109526;28;20028;-69
2023/08/21 02:56:14;;;;;;;17.23;4.30;;;;;;;19.09;100.00;101772.69;5109301;28;20032;-69
2023/08/21 02:58:40;;;;;;;19.00;4.35;;;;;;;19.04;100.00;101766.25;5111222;28;20031;-69
2023/08/21 03:01:05;;;;;;;16.42;3.85;;;;;;;19.12;100.00;101774.13;5093595;28;20031;-69
2023/08/21 03:03:32;;;;;;;18.80;3.70;;;;;;;19.14;100.00;101772.81;5108079;28;20061;-70
2023/08/21 03:05:58;;;;;;;18.48;4.10;;;;;;;19.19;100.00;101769.38;5110808;28;20062;-70
2023/08/21 03:08:24;;;;;;;21.90;4.10;;;;;;;19.22;100.00;101772.47;5109736;28;20051;-69
2023/08/21 03:10:49;;;;;;;17.02;4.38;;;;;;;19.11;100.00;101761.56;5111507;28;20023;-69
2023/08/21 03:13:15;;;;;;;14.52;4.10;;;;;;;19.11;100.00;101767.00;5109851;28;20028;-69
2023/08/21 03:15:40;;;;;;;15.50;3.47;;;;;;;19.08;100.00;101771.03;5105745;28;20031;-70
2023/08/21 03:18:05;;;;;;;20.02;4.07;;;;;;;19.12;100.00;101765.94;5104203;28;20024;-69
2023/08/21 03:20:31;;;;;;;13.63;3.10;;;;;;;19.14;100.00;101770.09;5112104;28;20054;-69
2023/08/21 03:22:56;;;;;;;18.42;3.60;;;;;;;19.10;100.00;101757.13;5107832;28;20035;-70
2023/08/21 03:25:21;;;;;;;14.73;3.60;;;;;;;19.14;100.00;101758.31;5098898;28;20057;-70
2023/08/21 03:27:49;;;;;;;20.38;3.70;;;;;;;19.15;100.00;101766.28;5099048;28;20032;-69
2023/08/21 03:30:15;;;;;;;15.25;3.38;;;;;;;19.09;100.00;101759.03;5100456;28;20023;-69
2023/08/21 03:32:40;;;;;;;22.50;3.63;;;;;;;19.13;100.00;101759.41;5101386;28;20024;-70
2023/08/21 03:35:06;;;;;;;16.02;3.15;;;;;;;19.16;100.00;101758.94;5100374;28;20031;-70
2023/08/21 03:37:32;;;;;;;18.40;3.42;;;;;;;19.10;100.00;101740.78;5097976;28;20107;-69
2023/08/21 03:39:57;;;;;;;15.50;3.17;;;;;;;19.27;100.00;101751.84;5095020;28;20494;-69
2023/08/21 03:42:23;;;;;;;10.93;3.33;;;;;;;19.19;100.00;101748.38;5099527;28;20054;-70
2023/08/21 03:44:50;;;;;;;15.20;3.20;;;;;;;19.19;100.00;101748.38;5100100;28;20501;-69
2023/08/21 03:47:16;;;;;;;17.17;3.35;;;;;;;19.14;100.00;101744.69;5095133;28;20032;-70
2023/08/21 03:49:41;;;;;;;11.90;3.25;;;;;;;19.06;100.00;101743.13;5101590;28;20023;-71
2023/08/21 03:52:07;;;;;;;18.60;3.22;;;;;;;19.21;100.00;101751.72;5102614;28;20093;-71
2023/08/21 03:54:32;;;;;;;13.95;3.22;;;;;;;19.15;100.00;101749.94;5108934;28;20028;-69
2023/08/21 03:56:58;;;;;;;11.80;3.05;;;;;;;19.18;100.00;101745.91;5105731;28;20036;-70
2023/08/21 03:59:27;;;;;;;12.68;3.08;;;;;;;19.17;100.00;101747.81;5102558;28;20032;-70
2023/08/21 04:01:52;;;;;;;11.23;2.75;;;;;;;19.29;100.00;101750.53;5103294;28;20057;-70
2023/08/21 04:04:18;;;;;;;18.75;3.40;;;;;;;19.30;100.00;101752.19;5105664;28;20103;-70
2023/08/21 04:06:43;;;;;;;15.95;3.63;;;;;;;19.29;100.00;101747.00;5106063;28;20032;-70
2023/08/21 04:09:09;;;;;;;13.98;3.33;;;;;;;19.32;100.00;101754.72;5106286;28;20031;-69
2023/08/21 04:11:35;;;;;;;12.70;2.78;;;;;;;19.25;100.00;101747.47;5104177;28;20035;-72
2023/08/21 04:14:02;;;;;;;11.90;2.50;;;;;;;19.21;100.00;101746.28;5100828;28;20024;-73
2023/08/21 04:16:28;;;;;;;13.25;2.97;;;;;;;19.17;100.00;101723.25;5103603;28;20040;-70
2023/08/21 04:18:54;;;;;;;12.35;2.47;;;;;;;19.37;100.00;101743.91;5108235;28;20107;-71
2023/08/21 04:21:19;;;;;;;14.57;2.40;;;;;;;19.41;100.00;101743.22;5090799;28;20506;-71
2023/08/21 04:23:46;;;;;;;11.82;2.90;;;;;;;19.27;100.00;101711.75;5108408;28;20031;-71
2023/08/21 04:26:11;;;;;;;12.80;2.50;;;;;;;19.47;100.00;101741.47;5106522;28;20031;-72
2023/08/21 04:28:37;;;;;;;11.68;2.60;;;;;;;19.46;100.00;101737.88;5100482;28;20027;-71
2023/08/21 04:31:06;;;;;;;14.27;2.63;;;;;;;19.48;100.00;101741.22;5100728;28;20028;-71
2023/08/21 04:33:31;;;;;;;12.20;2.50;;;;;;;19.48;100.00;101738.47;5099242;28;20107;-69
2023/08/21 04:35:57;;;;;;;9.63;2.08;;;;;;;19.50;100.00;101732.78;5099639;28;20047;-70
2023/08/21 04:38:23;;;;;;;15.93;3.10;;;;;;;19.39;100.00;101736.31;5098895;28;20028;-71
2023/08/21 04:40:48;;;;;;;12.32;2.60;;;;;;;19.34;100.00;101733.50;5097704;28;20032;-70
2023/08/21 04:43:13;;;;;;;9.63;2.47;;;;;;;19.39;100.00;101736.31;5080432;28;20024;-72
2023/08/21 04:45:50;;;;;;;11.80;2.50;;;;;;;19.37;100.00;101741.19;5082083;28;20077;-70
2023/08/21 04:48:15;;;;;;;9.75;2.00;;;;;;;19.48;100.00;101727.56;5082789;28;20032;-73
2023/08/21 04:50:41;;;;;;;9.55;2.47;;;;;;;19.52;100.00;101738.84;5099828;28;20055;-72
2023/08/21 04:53:06;;;;;;;9.52;1.90;;;;;;;19.50;100.00;101732.78;5100952;28;20032;-73
2023/08/21 04:55:31;;;;;;;12.10;1.70;;;;;;;19.42;100.00;101728.50;5095547;28;20414;-71
2023/08/21 04:57:57;;;;;;;12.32;1.92;;;;;;;19.57;100.00;101727.19;5097124;28;20623;-72
2023/08/21 05:00:22;;;;;;;8.40;2.03;;;;;;;19.56;100.00;101726.38;5081026;28;20036;-72
2023/08/21 05:02:48;;;;;;;8.30;2.08;;;;;;;19.56;100.00;101731.81;5099862;28;20331;-72
2023/08/21 05:05:13;;;;;;;10.00;1.95;;;;;;;19.53;100.00;101707.72;5096353;28;20395;-72
2023/08/21 05:07:39;;;;;;;8.30;1.80;;;;;;;19.74;100.00;101727.38;5100423;28;20073;-71
2023/08/21 05:10:05;;;;;;;9.70;1.88;;;;;;;19.79;100.00;101719.28;5094546;28;20024;-71
2023/08/21 05:12:30;;;;;;;7.25;1.73;;;;;;;19.81;100.00;101717.16;5085602;28;20056;-71
2023/08/21 05:14:56;;;;;;;10.70;2.55;;;;;;;19.93;100.00;101717.97;5104206;28;20074;-72
2023/08/21 05:17:21;;;;;;;8.98;1.80;;;;;;;19.91;100.00;101723.69;5098506;28;20103;-71
2023/08/21 05:19:47;;;;;;;8.52;2.00;;;;;;;19.90;100.00;101724.75;5097804;28;20028;-70
2023/08/21 05:22:12;;;;;;;12.43;2.30;;;;;;;19.89;100.00;101722.25;5098685;28;20062;-73
2023/08/21 05:24:38;;;;;;;9.02;2.05;;;;;;;19.86;100.00;101726.28;5098648;28;20028;-74
2023/08/21 05:27:04;;;;;;;9.43;2.15;;;;;;;19.98;100.00;101718.09;5099473;28;20024;-72
2023/08/21 05:29:29;;;;;;;12.23;2.53;;;;;;;19.90;100.00;101727.47;5082422;28;20024;-72
2023/08/21 05:31:55;;;;;;;9.43;2.10;;;;;;;20.03;100.00;101731.00;5099401;28;20442;-71
2023/08/21 05:34:20;;;;;;;10.35;2.65;;;;;;;20.06;100.00;101722.34;5100647;28;20031;-71
2023/08/21 05:36:46;;;;;;;11.45;3.03;;;;;;;20.06;100.00;101717.69;5097114;28;20046;-73
2023/08/21 05:39:11;;;;;;;14.25;2.40;;;;;;;20.18;100.00;101739.56;5099281;28;20044;-73
2023/08/21 05:41:37;;;;;;;6.95;2.00;;;;;;;20.12;100.00;101730.41;5098776;28;20035;-73
2023/08/21 05:44:02;;;;;;;11.23;2.28;;;;;;;20.23;100.00;101741.56;5099058;28;20050;-69
2023/08/21 05:46:28;;;;;;;9.02;2.08;;;;;;;20.35;100.00;101740.47;5098797;28;20467;-70
2023/08/21 05:48:53;;;;;;;12.55;2.40;;;;;;;20.36;100.00;101742.16;5098493;28;20040;-70
2023/08/21 05:51:18;;;;;;;9.00;2.05;;;;;;;20.47;100.00;101737.72;5092047;28;20044;-70
2023/08/21 05:53:44;;;;;;;7.50;2.10;;;;;;;20.47;100.00;101724.03;5099536;28;20491;-74
2023/08/21 05:56:09;;;;;;;10.65;2.08;;;;;;;20.60;100.00;101739.38;5096590;28;20394;-72
2023/08/21 05:58:35;;;;;;;11.07;2.33;;;;;;;20.61;100.00;101739.09;5097188;28;20020;-72
2023/08/21 06:01:00;;;;;;;8.07;1.90;;;;;;;20.50;100.00;101722.72;5095426;28;20091;-71
2023/08/21 06:03:25;;;;;;;11.85;2.35;;;;;;;20.56;100.00;101732.69;5095684;28;20481;-72
2023/08/21 06:05:51;;;;;;;10.18;2.13;;;;;;;20.52;100.00;101747.94;5093541;28;20036;-72
2023/08/21 06:08:18;;;;;;;10.75;2.40;;;;;;;20.49;100.00;101746.47;5079111;28;20030;-72
2023/08/21 06:10:43;;;;;;;10.10;2.15;;;;;;;20.48;100.00;101744.81;5096763;28;20075;-72
2023/08/21 06:13:08;;;;;;;11.40;2.22;;;;;;;20.53;100.00;101736.78;5097618;28;20019;-72
2023/08/21 06:15:34;;;;;;;9.95;2.20;;;;;;;20.57;100.00;101746.16;5100614;28;20039;-72
2023/08/21 06:18:00;;;;;;;8.45;2.25;;;;;;;20.52;100.00;101750.66;5100019;28;20032;-72
2023/08/21 06:20:26;;;;;;;7.90;1.90;;;;;;;20.36;100.00;101749.50;5100450;28;20463;-71
2023/08/21 06:22:51;;;;;;;9.85;2.10;;;;;;;20.39;100.00;101760.78;5105110;28;20111;-72
2023/08/21 06:25:19;;;;;;;13.13;2.05;;;;;;;20.25;100.00;101728.50;5085396;28;20055;-73
2023/08/21 06:27:44;;;;;;;10.32;2.38;;;;;;;20.23;100.00;101739.69;5100422;28;20028;-73
2023/08/21 06:30:10;;;;;;;8.05;1.95;;;;;;;20.36;100.00;101754.94;5081466;28;20048;-72
2023/08/21 06:32:36;;;;;;;10.70;2.25;;;;;;;20.38;100.00;101758.28;5099834;28;20028;-73
2023/08/21 06:35:01;;;;;;;14.23;2.25;;;;;;;20.34;100.00;101759.84;5086381;28;20028;-73
2023/08/21 06:37:26;;;;;;;11.82;2.60;;;;;;;20.48;100.00;101760.41;5110593;28;20031;-71
2023/08/21 06:39:52;;;;;;;12.80;2.20;;;;;;;20.38;100.00;101744.63;5101658;28;20375;-72
2023/08/21 06:42:17;;;;;;;8.43;2.00;;;;;;;20.51;100.00;101757.22;5085215;28;20076;-72
2023/08/21 06:44:43;;;;;;;7.05;1.65;;;;;;;20.31;100.00;101763.88;5104195;28;20028;-72
2023/08/21 06:47:08;;;;;;;11.48;2.20;;;;;;;20.48;100.00;101758.50;5106173;28;20110;-73
2023/08/21 06:49:34;;;;;;;11.40;2.47;;;;;;;20.49;100.00;101757.41;5102293;28;20028;-72
2023/08/21 06:51:59;;;;;;;10.55;2.10;;;;;;;20.48;100.00;101766.69;5103308;28;20047;-72
2023/08/21 06:54:25;;;;;;;7.68;2.10;;;;;;;20.53;100.00;101764.13;5110143;28;20028;-73
2023/08/21 06:56:50;;;;;;;8.43;1.92;;;;;;;20.55;100.00;101759.22;5111799;28;20024;-72
2023/08/21 06:59:15;;;;;;;8.23;1.98;;;;;;;20.59;100.00;101746.72;5075522;28;20621;-72
2023/08/21 07:01:41;;;;;;;10.70;2.03;;;;;;;20.75;100.00;101760.69;5109309;28;20407;-74
2023/08/21 07:04:06;;;;;;;6.45;1.92;;;;;;;20.80;100.00;101766.28;5109383;28;20024;-72
2023/08/21 07:06:32;;;;;;;10.90;2.00;;;;;;;20.93;99.58;101749.56;5108662;28;20042;-73
2023/08/21 07:08:57;;;;;;;11.32;1.70;;;;;;;21.08;98.51;101760.78;5102514;28;20024;-72
2023/08/21 07:11:23;;;;;;;9.40;1.88;;;;;;;21.06;98.04;101768.44;5103264;28;20059;-72
2023/08/21 07:13:49;;;;;;;9.15;1.92;;;;;;;21.05;97.64;101758.53;5103206;28;20402;-72
2023/08/21 07:16:14;;;;;;;15.30;2.03;;;;;;;20.98;97.25;101766.06;5101645;28;20032;-72
2023/08/21 07:18:39;;;;;;;7.75;1.80;;;;;;;21.00;96.69;101769.41;5101839;28;20032;-72
2023/08/21 07:21:05;;;;;;;10.27;2.25;;;;;;;21.01;96.71;101751.91;5084247;28;20036;-72
2023/08/21 07:23:32;;;;;;;7.28;1.70;;;;;;;21.05;96.63;101763.19;5101351;28;20036;-71
2023/08/21 07:25:58;;;;;;;10.07;2.05;;;;;;;20.96;97.57;101756.44;5100483;28;20082;-70
2023/08/21 07:28:24;;;;;;;8.43;1.65;;;;;;;21.25;96.22;101757.25;5101371;28;20024;-71
2023/08/21 07:30:56;;;;;;;9.95;2.50;;;;;;;21.24;95.93;101747.38;5100972;28;20039;-73
2023/08/21 07:33:21;;;;;;;8.75;2.00;;;;;;;21.17;96.77;101752.19;5105481;28;20028;-73
2023/08/21 07:35:47;;;;;;;9.95;2.10;;;;;;;21.19;95.57;101767.28;5104546;28;20034;-71
2023/08/21 07:38:12;;;;;;;10.10;1.90;;;;;;;21.21;94.45;101770.59;5100229;28;20047;-71
2023/08/21 07:40:38;;;;;;;7.60;1.70;;;;;;;21.23;94.43;101773.09;5098438;28;20693;-71
2023/08/21 07:43:03;;;;;;;11.15;1.70;;;;;;;21.35;93.40;101765.66;5098807;28;20103;-71
2023/08/21 07:45:28;;;;;;;11.85;2.22;;;;;;;21.61;92.16;101772.38;5110345;28;20012;-71
2023/08/21 07:47:54;;;;;;;7.57;1.80;;;;;;;21.61;91.00;101768.81;5089335;28;20032;-70
2023/08/21 07:50:19;;;;;;;9.23;2.00;;;;;;;21.76;89.64;101761.69;5109411;28;20036;-72
2023/08/21 07:52:45;;;;;;;8.05;1.77;;;;;;;21.75;88.44;101770.13;5090963;28;20244;-73
2023/08/21 07:55:11;;;;;;;9.55;1.80;;;;;;;21.68;87.97;101769.47;5106644;28;20020;-71
2023/08/21 07:57:36;;;;;;;11.63;2.13;;;;;;;21.80;87.89;101782.00;5107966;28;20027;-70
2023/08/21 08:00:02;;;;;;;8.98;1.75;;;;;;;21.82;88.13;101779.03;5109031;28;20032;-72
2023/08/21 08:02:27;;;;;;;9.77;1.92;;;;;;;21.93;88.14;101761.66;5107562;28;20040;-71
2023/08/21 08:04:53;;;;;;;8.43;2.13;;;;;;;22.20;87.44;101761.78;5105098;28;20036;-71
2023/08/21 08:07:20;;;;;;;7.28;2.03;;;;;;;22.24;87.33;101767.59;5103812;28;20020;-73
2023/08/21 08:09:46;;;;;;;6.90;1.77;;;;;;;22.14;86.69;101771.00;5085654;28;20044;-73
2023/08/21 08:12:12;;;;;;;7.30;1.70;;;;;;;22.30;86.39;101768.50;5104784;28;20696;-74
2023/08/21 08:14:38;;;;;;;8.40;1.92;;;;;;;22.26;86.50;101765.44;5101891;28;20032;-70
2023/08/21 08:17:03;;;;;;;14.10;2.85;;;;;;;22.18;86.32;101774.09;5104097;28;20063;-71
2023/08/21 08:19:29;;;;;;;8.77;1.90;;;;;;;22.11;86.36;101774.22;5101012;28;20066;-70
2023/08/21 08:21:54;;;;;;;11.55;2.10;;;;;;;21.82;87.61;101776.31;5101437;28;20039;-71
2023/08/21 08:24:20;;;;;;;5.63;1.70;;;;;;;21.60;88.34;101772.66;5101468;28;20081;-71
2023/08/21 08:26:46;;;;;;;8.88;2.00;;;;;;;21.92;87.68;101783.81;5103271;28;20077;-72
2023/08/21 08:29:11;;;;;;;8.93;1.83;;;;;;;22.18;85.42;101782.31;5100182;28;20082;-71
2023/08/21 08:31:38;;;;;;;4.63;1.40;;;;;;;22.37;84.23;101780.09;5100283;28;20028;-74
2023/08/21 08:34:04;;;;;;;6.05;1.60;;;;;;;22.24;81.24;101784.88;5082358;28;20024;-75
2023/08/21 08:36:30;;;;;;;8.10;2.15;;;;;;;22.11;81.97;101796.16;5082103;28;20028;-75
2023/08/21 08:38:55;;;;;;;7.80;1.45;;;;;;;21.91;82.68;101780.25;5098197;28;20027;-75
2023/08/21 08:41:54;;;;;;;5.22;1.45;;;;;;;21.90;83.47;101786.00;5102011;28;20031;-70
2023/08/21 08:44:19;;;;;;;7.72;2.15;;;;;;;21.99;83.64;101785.31;5101250;28;20032;-70
2023/08/21 08:46:45;;;;;;;7.93;1.80;;;;;;;21.85;85.17;101783.16;5101067;28;20042;-72
2023/08/21 08:49:11;;;;;;;6.97;1.60;;;;;;;22.07;84.83;101785.97;5106366;28;20502;-71
2023/08/21 08:51:39;;;;;;;7.15;1.63;;;;;;;22.09;84.97;101772.84;5106474;28;20052;-74
2023/08/21 08:54:06;;;;;;;5.82;1.65;;;;;;;22.26;84.15;101779.97;5104795;28;20077;-72
2023/08/21 08:56:31;;;;;;;5.90;1.60;;;;;;;22.20;83.67;101780.16;5104459;28;20044;-72
2023/08/21 08:58:57;;;;;;;10.52;2.28;;;;;;;22.27;83.26;101767.09;5103514;28;20095;-71
2023/08/21 09:01:22;;;;;;;7.75;1.65;;;;;;;22.39;82.82;101764.22;5110111;28;20035;-74
2023/08/21 09:03:50;;;;;;;8.35;1.90;;;;;;;22.71;82.17;101778.91;5085218;28;20035;-72
2023/08/21 09:06:16;;;;;;;10.30;2.13;;;;;;;22.75;81.50;101765.50;5067963;28;20036;-72
2023/08/21 09:08:55;;;;;;;7.32;1.50;;;;;;;22.59;80.73;101774.63;5087511;28;20024;-72
2023/08/21 09:11:21;;;;;;;6.68;1.80;;;;;;;22.58;80.84;101762.81;5086774;28;20036;-72
2023/08/21 09:13:50;;;;;;;6.80;1.70;;;;;;;22.42;81.51;101775.53;5106321;28;20049;-71
2023/08/21 09:16:16;;;;;;;7.43;1.50;;;;;;;22.11;83.02;101792.59;5102538;28;20061;-70
2023/08/21 09:18:49;;;;;;;9.55;2.08;;;;;;;22.47;82.47;101785.72;5104333;28;20028;-71
2023/08/21 09:21:19;;;;;;;11.35;2.03;;;;;;;22.62;82.39;101779.59;5102339;28;20177;-72
2023/08/21 09:23:48;;;;;;;11.60;2.00;;;;;;;22.47;82.72;101772.81;5100719;28;20028;-71
2023/08/21 09:26:23;;;;;;;7.60;2.13;;;;;;;22.26;83.36;101781.88;5102492;28;20031;-71
2023/08/21 09:28:50;;;;;;;7.07;1.50;;;;;;;22.44;82.60;101776.06;5101118;28;20024;-70
2023/08/21 09:31:22;;;;;;;7.93;1.95;;;;;;;22.26;82.97;101765.44;5084261;28;20490;-70
2023/08/21 09:33:56;;;;;;;7.03;2.22;;;;;;;22.55;82.33;101766.09;5103346;28;20490;-72
2023/08/21 09:36:22;;;;;;;7.05;1.60;;;;;;;22.47;81.56;101772.81;5098945;28;20028;-71
2023/08/21 09:38:47;;;;;;;7.18;1.65;;;;;;;22.49;81.50;101770.66;5098984;28;20068;-73
2023/08/21 09:41:13;;;;;;;7.45;2.20;;;;;;;22.33;82.31;101770.72;5091199;28;20028;-72
2023/08/21 09:43:45;;;;;;;10.07;1.88;;;;;;;22.53;81.98;101765.50;5108354;28;20109;-71
2023/08/21 09:46:16;;;;;;;7.22;1.95;;;;;;;22.53;82.22;101779.22;5103392;28;20031;-71
2023/08/21 09:48:43;;;;;;;8.75;1.70;;;;;;;22.62;81.48;101769.47;5102326;28;20105;-71
2023/08/21 09:51:09;;;;;;;10.35;1.70;;;;;;;22.88;80.58;101770.56;5101891;28;20048;-71
2023/08/21 09:53:35;;;;;;;14.77;2.22;;;;;;;22.63;80.62;101753.81;5101400;28;20032;-71
2023/08/21 09:56:04;;;;;;;7.95;2.22;;;;;;;22.68;81.17;101773.91;5097594;28;20028;-71
2023/08/21 09:58:29;;;;;;;6.97;2.10;;;;;;;22.73;80.47;101776.72;5097380;28;20079;-71
2023/08/21 10:01:00;;;;;;;12.65;2.30;;;;;;;22.73;80.90;101775.88;5098412;28;20549;-72
2023/08/21 10:03:26;;;;;;;6.78;1.75;;;;;;;22.81;80.80;101767.19;5097878;28;20046;-69
2023/08/21 10:05:55;;;;;;;11.93;1.98;;;;;;;22.97;80.46;101759.97;5098213;28;20028;-70
2023/08/21 10:08:25;;;;;;;8.48;2.00;;;;;;;23.19;79.99;101770.91;5099158;28;20432;-71
2023/08/21 10:10:51;;;;;;;7.70;2.10;;;;;;;23.24;79.65;101751.72;5098778;28;20043;-72
2023/08/21 10:13:17;;;;;;;10.07;2.28;;;;;;;23.50;78.87;101768.41;5098910;28;20031;-71
2023/08/21 10:15:44;;;;;;;8.00;2.03;;;;;;;23.46;78.37;101765.38;5099261;28;20042;-72
2023/08/21 10:18:19;;;;;;;9.05;1.98;;;;;;;23.31;78.86;101766.09;5098993;28;20024;-70
2023/08/21 10:20:45;;;;;;;7.40;1.90;;;;;;;23.02;79.97;101772.94;5098732;28;20390;-70
2023/08/21 10:23:23;;;;;;;8.35;1.98;;;;;;;22.90;79.76;101768.38;5099673;28;20099;-68
2023/08/21 10:25:54;;;;;;;6.93;1.58;;;;;;;22.74;79.92;101756.41;5099392;28;20116;-74
2023/08/21 10:28:20;;;;;;;10.75;2.22;;;;;;;22.76;80.27;101772.63;5098337;28;20099;-72
2023/08/21 10:30:45;;;;;;;8.93;2.30;;;;;;;22.83;80.14;101759.53;5098332;28;20032;-72
2023/08/21 10:33:10;;;;;;;8.85;1.77;;;;;;;22.73;80.89;101767.66;5084858;28;20036;-72
2023/08/21 10:35:36;;;;;;;11.43;2.13;;;;;;;22.57;82.14;101768.56;5101543;28;20104;-72
2023/08/21 10:38:17;;;;;;;10.07;2.15;;;;;;;22.87;81.58;101768.91;5106423;28;20035;-73
2023/08/21 10:41:06;;;;;;;11.00;2.25;;;;;;;22.73;81.51;101775.88;5102298;28;20035;-72
2023/08/21 10:43:45;;;;;;;8.75;1.58;;;;;;;22.60;81.45;101784.50;5100457;28;20082;-72
2023/08/21 10:46:11;;;;;;;10.32;2.05;;;;;;;22.61;81.30;101769.69;5103186;28;20031;-73
2023/08/21 10:48:38;;;;;;;9.93;1.95;;;;;;;22.97;80.67;101773.69;5103406;28;20039;-73
2023/08/21 10:51:06;;;;;;;8.95;1.77;;;;;;;22.94;80.03;101766.81;5102275;28;20093;-72
2023/08/21 10:53:33;;;;;;;8.73;1.73;;;;;;;23.27;79.47;101761.34;5101424;28;20028;-73
2023/08/21 10:56:02;;;;;;;12.05;2.00;;;;;;;23.41;78.84;101771.66;5101397;28;20028;-72
2023/08/21 10:58:28;;;;;;;9.07;1.92;;;;;;;23.14;79.30;101782.66;5102519;28;20032;-73
2023/08/21 11:01:00;;;;;;;9.80;2.10;;;;;;;23.17;79.52;101775.81;5100286;28;20154;-74
2023/08/21 11:03:26;;;;;;;10.40;2.25;;;;;;;23.25;79.41;101761.63;5085354;28;20059;-70
2023/08/21 11:06:08;;;;;;;12.02;1.75;;;;;;;23.29;79.18;101776.50;5103683;28;20093;-71
2023/08/21 11:08:35;;;;;;;8.50;2.40;;;;;;;23.18;79.79;101781.06;5107277;28;20461;-74
2023/08/21 11:11:02;;;;;;;13.52;2.25;;;;;;;23.00;81.17;101784.16;5107397;28;20122;-74